createdAt,value
2019-01-12T00:00:15.360Z,99680.16
2019-01-12T00:00:46.521Z,99680.15
2019-01-12T00:01:17.699Z,99673.67
2019-01-12T00:01:48.902Z,99680.52
2019-01-12T00:02:20.141Z,99676.66
2019-01-12T00:02:51.324Z,99678.41
2019-01-12T00:03:22.532Z,99674.55
2019-01-12T00:03:53.693Z,99681.37
2019-01-12T00:04:24.882Z,99680.97
2019-01-12T00:04:56.048Z,99680.97
2019-01-12T00:05:27.212Z,99680.97
2019-01-12T00:05:58.386Z,99686.11
2019-01-12T00:06:29.543Z,99681.41
2019-01-12T00:07:00.714Z,99683.11
2019-01-12T00:07:31.888Z,99685.27
2019-01-12T00:08:03.077Z,99680.53
2019-01-12T00:08:34.309Z,99686.95
2019-01-12T00:09:05.476Z,99681.37
2019-01-12T00:09:36.678Z,99679.63
2019-01-12T00:10:07.846Z,99677.91
2019-01-12T00:10:39.058Z,99681.35
2019-01-12T00:11:10.221Z,99678.34
2019-01-12T00:11:41.415Z,99679.69
2019-01-12T00:12:12.599Z,99674.95
2019-01-12T00:12:43.762Z,99674.50
2019-01-12T00:13:14.951Z,99673.66
2019-01-12T00:13:46.130Z,99680.13
2019-01-12T00:14:17.281Z,99678.36
2019-01-12T00:14:48.459Z,99678.84
2019-01-12T00:15:19.681Z,99678.41
2019-01-12T00:15:50.855Z,99679.69
2019-01-12T00:16:22.092Z,99682.25
2019-01-12T00:16:53.266Z,99682.70
2019-01-12T00:17:24.427Z,99692.08
2019-01-12T00:17:55.601Z,99690.79
2019-01-12T00:18:26.783Z,99687.79
2019-01-12T00:18:57.954Z,99686.11
2019-01-12T00:19:29.119Z,99688.63
2019-01-12T00:20:00.295Z,99692.91
2019-01-12T00:20:31.482Z,99688.61
2019-01-12T00:21:02.677Z,99682.17
2019-01-12T00:21:33.879Z,99679.61
2019-01-12T00:22:05.049Z,99677.88
2019-01-12T00:22:36.218Z,99683.40
2019-01-12T00:23:07.403Z,99675.27
2019-01-12T00:23:38.571Z,99680.39
2019-01-12T00:24:09.745Z,99680.89
2019-01-12T00:24:40.911Z,99679.16
2019-01-12T00:25:12.157Z,99684.69
2019-01-12T00:25:43.321Z,99684.25
2019-01-12T00:26:14.502Z,99685.98
2019-01-12T00:26:45.668Z,99682.55
2019-01-12T00:27:16.842Z,99689.37
2019-01-12T00:27:48.018Z,99685.51
2019-01-12T00:28:19.181Z,99685.07
2019-01-12T00:28:50.356Z,99689.80
2019-01-12T00:29:21.535Z,99691.48
2019-01-12T00:29:52.734Z,99690.19
2019-01-12T00:30:23.971Z,99692.31
2019-01-12T00:30:55.137Z,99693.16
2019-01-12T00:31:26.303Z,99694.48
2019-01-12T00:31:57.470Z,99694.48
2019-01-12T00:32:28.684Z,99697.89
2019-01-12T00:32:59.854Z,99689.75
2019-01-12T00:33:31.018Z,99691.08
2019-01-12T00:34:02.185Z,99687.62
2019-01-12T00:34:33.384Z,99689.80
2019-01-12T00:35:04.553Z,99687.18
2019-01-12T00:35:35.710Z,99684.61
2019-01-12T00:36:06.893Z,99687.16
2019-01-12T00:36:38.090Z,99689.67
2019-01-12T00:37:09.248Z,99690.93
2019-01-12T00:37:40.450Z,99690.09
2019-01-12T00:38:11.629Z,99690.93
2019-01-12T00:38:42.798Z,99693.50
2019-01-12T00:39:13.981Z,99690.03
2019-01-12T00:39:45.152Z,99690.45
2019-01-12T00:40:16.315Z,99693.86
2019-01-12T00:40:47.494Z,99691.31
2019-01-12T00:41:18.693Z,99690.45
2019-01-12T00:41:49.910Z,99690.86
2019-01-12T00:42:21.097Z,99688.28
2019-01-12T00:42:52.268Z,99693.84
2019-01-12T00:43:23.434Z,99691.30
2019-01-12T00:43:54.656Z,99685.25
2019-01-12T00:44:25.828Z,99683.97
2019-01-12T00:44:57.014Z,99682.23
2019-01-12T00:45:28.230Z,99686.08
2019-01-12T00:45:59.393Z,99685.19
2019-01-12T00:46:30.581Z,99683.02
2019-01-12T00:47:01.758Z,99689.02
2019-01-12T00:47:32.935Z,99685.11
2019-01-12T00:48:04.088Z,99677.86
2019-01-12T00:48:35.282Z,99679.59
2019-01-12T00:49:06.443Z,99682.60
2019-01-12T00:49:38.055Z,99679.14
2019-01-12T00:50:09.242Z,99673.56
2019-01-12T00:50:40.401Z,99665.42
2019-01-12T00:51:11.590Z,99671.00
2019-01-12T00:51:42.810Z,99674.41
2019-01-12T00:52:13.994Z,99670.98
2019-01-12T00:52:45.170Z,99678.70
2019-01-12T00:53:16.350Z,99676.58
2019-01-12T00:53:47.518Z,99679.13
2019-01-12T00:54:18.678Z,99681.64
2019-01-12T00:54:49.859Z,99680.34
2019-01-12T00:55:21.031Z,99679.95
2019-01-12T00:55:52.246Z,99678.70
2019-01-12T00:56:23.419Z,99674.45
2019-01-12T00:56:54.653Z,99669.72
2019-01-12T00:57:25.827Z,99679.98
2019-01-12T00:57:57.001Z,99677.84
2019-01-12T00:58:29.304Z,99675.21
2019-01-12T00:59:00.478Z,99668.35
2019-01-12T00:59:31.648Z,99673.92
2019-01-12T01:00:02.876Z,99669.25
2019-01-12T01:00:34.042Z,99672.73
2019-01-12T01:01:05.226Z,99671.06
2019-01-12T01:01:36.391Z,99672.00
2019-01-12T01:02:07.607Z,99667.31
2019-01-12T01:02:38.790Z,99671.97
2019-01-12T01:03:09.982Z,99670.64
2019-01-12T01:03:41.143Z,99670.23
2019-01-12T01:04:12.375Z,99663.36
2019-01-12T01:04:43.567Z,99663.77
2019-01-12T01:05:14.745Z,99666.31
2019-01-12T01:05:45.908Z,99665.03
2019-01-12T01:06:17.074Z,99664.13
2019-01-12T01:06:48.229Z,99665.02
2019-01-12T01:07:19.396Z,99654.70
2019-01-12T01:07:50.581Z,99661.11
2019-01-12T01:08:21.733Z,99663.28
2019-01-12T01:08:52.900Z,99658.54
2019-01-12T01:09:24.122Z,99661.55
2019-01-12T01:09:55.298Z,99666.23
2019-01-12T01:10:26.454Z,99664.51
2019-01-12T01:10:57.640Z,99668.35
2019-01-12T01:11:28.848Z,99663.60
2019-01-12T01:12:00.003Z,99663.64
2019-01-12T01:12:31.187Z,99667.51
2019-01-12T01:13:02.373Z,99660.72
2019-01-12T01:13:33.581Z,99668.41
2019-01-12T01:14:04.764Z,99666.68
2019-01-12T01:14:35.969Z,99664.52
2019-01-12T01:15:07.125Z,99664.52
2019-01-12T01:15:38.302Z,99666.67
2019-01-12T01:16:09.504Z,99667.96
2019-01-12T01:16:40.676Z,99668.35
2019-01-12T01:17:12.174Z,99669.25
2019-01-12T01:17:43.438Z,99665.84
2019-01-12T01:18:14.638Z,99667.08
2019-01-12T01:18:45.857Z,99665.34
2019-01-12T01:19:17.047Z,99667.06
2019-01-12T01:19:48.208Z,99666.68
2019-01-12T01:20:19.381Z,99662.78
2019-01-12T01:20:50.582Z,99667.07
2019-01-12T01:21:21.754Z,99670.08
2019-01-12T01:21:52.946Z,99664.95
2019-01-12T01:22:24.112Z,99666.23
2019-01-12T01:22:55.311Z,99667.52
2019-01-12T01:23:26.543Z,99653.41
2019-01-12T01:23:57.709Z,99663.28
2019-01-12T01:24:28.909Z,99665.84
2019-01-12T01:25:00.189Z,99659.02
2019-01-12T01:25:31.311Z,99664.12
2019-01-12T01:26:02.506Z,99663.67
2019-01-12T01:26:33.672Z,99661.50
2019-01-12T01:27:04.849Z,99665.34
2019-01-12T01:27:36.026Z,99655.95
2019-01-12T01:28:07.206Z,99657.23
2019-01-12T01:28:38.414Z,99661.50
2019-01-12T01:29:09.586Z,99653.84
2019-01-12T01:29:40.749Z,99659.83
2019-01-12T01:30:11.923Z,99658.54
2019-01-12T01:30:43.092Z,99658.54
2019-01-12T01:31:14.257Z,99649.58
2019-01-12T01:31:45.478Z,99648.75
2019-01-12T01:32:16.638Z,99645.77
2019-01-12T01:32:47.814Z,99644.45
2019-01-12T01:33:19.003Z,99644.49
2019-01-12T01:33:50.182Z,99641.03
2019-01-12T01:34:21.349Z,99640.56
2019-01-12T01:34:54.936Z,99641.84
2019-01-12T01:35:26.155Z,99643.13
2019-01-12T01:35:57.330Z,99637.94
2019-01-12T01:36:28.534Z,99640.12
2019-01-12T01:36:59.693Z,99643.54
2019-01-12T01:37:30.853Z,99646.92
2019-01-12T01:38:02.035Z,99639.20
2019-01-12T01:38:33.263Z,99638.31
2019-01-12T01:39:04.433Z,99631.51
2019-01-12T01:39:35.607Z,99634.07
2019-01-12T01:40:06.785Z,99637.47
2019-01-12T01:40:37.955Z,99637.48
2019-01-12T01:41:09.157Z,99635.77
2019-01-12T01:41:42.621Z,99642.60
2019-01-12T01:42:13.843Z,99639.61
2019-01-12T01:42:45.062Z,99639.66
2019-01-12T01:43:16.238Z,99638.78
2019-01-12T01:43:47.414Z,99638.33
2019-01-12T01:44:18.585Z,99634.94
2019-01-12T01:44:49.825Z,99631.51
2019-01-12T01:45:21.027Z,99642.61
2019-01-12T01:45:52.185Z,99640.94
2019-01-12T01:46:23.373Z,99634.94
2019-01-12T01:46:54.553Z,99636.64
2019-01-12T01:47:25.770Z,99646.02
2019-01-12T01:47:56.950Z,99637.50
2019-01-12T01:48:28.154Z,99631.08
2019-01-12T01:48:59.326Z,99640.03
2019-01-12T01:49:30.476Z,99638.33
2019-01-12T01:50:01.647Z,99636.64
2019-01-12T01:50:32.820Z,99645.17
2019-01-12T01:51:04.061Z,99645.61
2019-01-12T01:51:35.221Z,99639.67
2019-01-12T01:52:06.402Z,99643.53
2019-01-12T01:52:37.583Z,99637.54
2019-01-12T01:53:08.725Z,99638.39
2019-01-12T01:53:39.901Z,99643.09
2019-01-12T01:54:11.114Z,99636.22
2019-01-12T01:54:42.339Z,99637.50
2019-01-12T01:55:13.506Z,99634.94
2019-01-12T01:55:44.710Z,99632.36
2019-01-12T01:56:15.878Z,99633.20
2019-01-12T01:56:47.063Z,99629.80
2019-01-12T01:57:18.236Z,99636.66
2019-01-12T01:57:49.438Z,99630.70
2019-01-12T01:58:20.672Z,99635.83
2019-01-12T01:58:51.860Z,99628.52
2019-01-12T01:59:23.031Z,99632.34
2019-01-12T01:59:54.195Z,99625.04
2019-01-12T02:00:25.381Z,99624.64
2019-01-12T02:00:56.567Z,99622.02
2019-01-12T02:01:27.805Z,99625.42
2019-01-12T02:01:58.978Z,99615.17
2019-01-12T02:02:30.176Z,99614.33
2019-01-12T02:03:01.372Z,99614.34
2019-01-12T02:03:32.546Z,99618.23
2019-01-12T02:04:03.738Z,99608.43
2019-01-12T02:04:34.960Z,99617.80
2019-01-12T02:05:06.120Z,99615.23
2019-01-12T02:05:37.290Z,99618.23
2019-01-12T02:06:08.458Z,99610.48
2019-01-12T02:06:39.628Z,99610.48
2019-01-12T02:07:10.799Z,99612.67
2019-01-12T02:07:41.994Z,99610.13
2019-01-12T02:08:13.201Z,99614.80
2019-01-12T02:08:44.365Z,99604.95
2019-01-12T02:09:15.586Z,99614.34
2019-01-12T02:09:47.640Z,99608.77
2019-01-12T02:10:18.804Z,99612.66
2019-01-12T02:10:50.013Z,99606.64
2019-01-12T02:11:21.197Z,99604.91
2019-01-12T02:11:52.654Z,99608.80
2019-01-12T02:12:23.862Z,99607.06
2019-01-12T02:12:55.085Z,99604.91
2019-01-12T02:13:26.269Z,99603.23
2019-01-12T02:13:57.438Z,99611.77
2019-01-12T02:14:28.606Z,99594.66
2019-01-12T02:14:59.783Z,99604.97
2019-01-12T02:15:30.954Z,99605.00
2019-01-12T02:16:02.123Z,99607.53
2019-01-12T02:16:33.288Z,99606.70
2019-01-12T02:17:04.459Z,99610.95
2019-01-12T02:17:35.633Z,99613.50
2019-01-12T02:18:06.819Z,99605.80
2019-01-12T02:18:38.005Z,99610.09
2019-01-12T02:19:09.177Z,99606.63
2019-01-12T02:19:40.365Z,99601.50
2019-01-12T02:20:11.539Z,99602.72
2019-01-12T02:20:42.702Z,99601.49
2019-01-12T02:21:13.874Z,99606.17
2019-01-12T02:21:45.119Z,99604.50
2019-01-12T02:22:16.279Z,99605.78
2019-01-12T02:22:47.447Z,99605.78
2019-01-12T02:23:18.619Z,99605.78
2019-01-12T02:23:49.836Z,99609.20
2019-01-12T02:24:21.002Z,99610.09
2019-01-12T02:24:52.179Z,99607.09
2019-01-12T02:25:23.368Z,99607.09
2019-01-12T02:25:54.550Z,99611.73
2019-01-12T02:26:25.720Z,99608.34
2019-01-12T02:26:56.879Z,99611.77
2019-01-12T02:27:28.051Z,99607.91
2019-01-12T02:27:59.241Z,99609.66
2019-01-12T02:28:30.413Z,99614.80
2019-01-12T02:29:01.659Z,99608.84
2019-01-12T02:29:32.834Z,99612.67
2019-01-12T02:30:03.995Z,99612.67
2019-01-12T02:30:35.160Z,99610.55
2019-01-12T02:31:06.348Z,99615.67
2019-01-12T02:31:37.553Z,99614.41
2019-01-12T02:32:08.727Z,99616.98
2019-01-12T02:32:39.927Z,99613.13
2019-01-12T02:33:11.094Z,99613.58
2019-01-12T02:33:42.315Z,99616.20
2019-01-12T02:34:13.504Z,99611.08
2019-01-12T02:34:44.674Z,99613.63
2019-01-12T02:35:15.876Z,99605.89
2019-01-12T02:35:47.046Z,99617.03
2019-01-12T02:36:18.221Z,99606.33
2019-01-12T02:36:49.374Z,99612.30
2019-01-12T02:37:20.537Z,99611.00
2019-01-12T02:37:51.751Z,99616.14
2019-01-12T02:38:22.908Z,99611.41
2019-01-12T02:38:54.070Z,99610.55
2019-01-12T02:39:25.286Z,99610.99
2019-01-12T02:39:56.467Z,99605.00
2019-01-12T02:40:27.657Z,99613.58
2019-01-12T02:40:58.888Z,99612.30
2019-01-12T02:41:30.049Z,99610.13
2019-01-12T02:42:01.230Z,99609.71
2019-01-12T02:42:32.412Z,99611.85
2019-01-12T02:43:03.598Z,99610.13
2019-01-12T02:43:34.782Z,99607.53
2019-01-12T02:44:05.943Z,99604.58
2019-01-12T02:44:37.130Z,99604.59
2019-01-12T02:45:08.314Z,99602.80
2019-01-12T02:45:39.482Z,99602.80
2019-01-12T02:46:10.694Z,99599.83
2019-01-12T02:46:41.940Z,99607.09
2019-01-12T02:47:13.123Z,99601.05
2019-01-12T02:47:44.309Z,99607.45
2019-01-12T02:48:15.531Z,99608.71
2019-01-12T02:48:46.711Z,99608.28
2019-01-12T02:49:17.923Z,99606.61
2019-01-12T02:49:49.109Z,99597.58
2019-01-12T02:50:20.244Z,99603.53
2019-01-12T02:50:51.453Z,99601.36
2019-01-12T02:51:22.616Z,99597.50
2019-01-12T02:51:53.777Z,99594.53
2019-01-12T02:52:25.018Z,99598.84
2019-01-12T02:52:56.237Z,99589.87
2019-01-12T02:53:27.432Z,99598.40
2019-01-12T02:53:58.632Z,99586.42
2019-01-12T02:54:29.810Z,99596.67
2019-01-12T02:55:08.154Z,99595.39
2019-01-12T02:55:33.924Z,99592.44
2019-01-12T02:56:05.368Z,99591.14
2019-01-12T02:56:36.563Z,99588.13
2019-01-12T02:57:07.739Z,99580.82
2019-01-12T02:57:38.908Z,99590.69
2019-01-12T02:58:10.080Z,99590.28
2019-01-12T02:58:41.254Z,99588.15
2019-01-12T02:59:12.428Z,99582.13
2019-01-12T02:59:43.603Z,99588.15
2019-01-12T03:00:14.786Z,99587.31
2019-01-12T03:00:45.958Z,99588.98
2019-01-12T03:01:17.116Z,99588.53
2019-01-12T03:01:48.343Z,99582.57
2019-01-12T03:02:19.536Z,99580.89
2019-01-12T03:02:50.701Z,99585.97
2019-01-12T03:03:21.860Z,99576.59
2019-01-12T03:03:53.027Z,99582.18
2019-01-12T03:04:24.201Z,99574.11
2019-01-12T03:04:55.367Z,99574.49
2019-01-12T03:05:26.530Z,99577.45
2019-01-12T03:05:57.693Z,99578.28
2019-01-12T03:06:28.914Z,99578.28
2019-01-12T03:07:00.090Z,99570.12
2019-01-12T03:07:31.270Z,99570.95
2019-01-12T03:08:02.432Z,99578.25
2019-01-12T03:08:33.612Z,99572.23
2019-01-12T03:09:04.790Z,99574.86
2019-01-12T03:09:35.975Z,99569.23
2019-01-12T03:10:07.154Z,99575.25
2019-01-12T03:10:38.337Z,99573.98
2019-01-12T03:11:09.577Z,99571.84
2019-01-12T03:11:40.790Z,99565.38
2019-01-12T03:12:11.963Z,99571.41
2019-01-12T03:12:43.192Z,99571.84
2019-01-12T03:13:14.384Z,99566.72
2019-01-12T03:13:45.563Z,99563.71
2019-01-12T03:14:16.735Z,99565.00
2019-01-12T03:14:47.914Z,99566.28
2019-01-12T03:15:19.090Z,99563.27
2019-01-12T03:15:50.334Z,99562.81
2019-01-12T03:16:21.512Z,99561.97
2019-01-12T03:16:52.689Z,99561.97
2019-01-12T03:17:23.878Z,99558.97
2019-01-12T03:17:55.059Z,99562.81
2019-01-12T03:18:26.230Z,99562.81
2019-01-12T03:18:57.405Z,99558.98
2019-01-12T03:19:28.592Z,99547.49
2019-01-12T03:19:59.768Z,99552.17
2019-01-12T03:20:30.929Z,99549.14
2019-01-12T03:21:02.099Z,99552.55
2019-01-12T03:21:33.272Z,99553.83
2019-01-12T03:22:04.488Z,99541.40
2019-01-12T03:22:35.659Z,99541.40
2019-01-12T03:23:06.862Z,99544.77
2019-01-12T03:23:38.025Z,99544.77
2019-01-12T03:24:09.198Z,99555.93
2019-01-12T03:24:40.361Z,99541.82
2019-01-12T03:25:17.743Z,99541.78
2019-01-12T03:25:44.437Z,99541.78
2019-01-12T03:26:15.613Z,99537.00
2019-01-12T03:26:46.821Z,99537.00
2019-01-12T03:27:18.072Z,99543.47
2019-01-12T03:27:49.245Z,99543.47
2019-01-12T03:28:20.425Z,99540.91
2019-01-12T03:28:51.619Z,99537.47
2019-01-12T03:29:22.797Z,99537.47
2019-01-12T03:29:53.967Z,99548.16
2019-01-12T03:30:25.152Z,99547.33
2019-01-12T03:30:56.319Z,99544.75
2019-01-12T03:31:27.492Z,99533.15
2019-01-12T03:31:58.735Z,99533.15
2019-01-12T03:32:29.911Z,99543.88
2019-01-12T03:33:01.201Z,99541.30
2019-01-12T03:33:32.395Z,99541.30
2019-01-12T03:34:03.590Z,99531.06
2019-01-12T03:34:34.777Z,99532.78
2019-01-12T03:35:05.956Z,99531.06
2019-01-12T03:35:37.116Z,99531.06
2019-01-12T03:36:08.291Z,99518.67
2019-01-12T03:36:39.459Z,99518.67
2019-01-12T03:37:10.662Z,99519.96
2019-01-12T03:37:41.871Z,99519.91
2019-01-12T03:38:13.095Z,99522.08
2019-01-12T03:38:44.294Z,99522.08
2019-01-12T03:39:15.473Z,99518.23
2019-01-12T03:39:46.645Z,99516.97
2019-01-12T03:40:17.866Z,99513.93
2019-01-12T03:40:49.031Z,99516.48
2019-01-12T03:41:20.203Z,99516.48
2019-01-12T03:41:51.375Z,99517.31
2019-01-12T03:42:22.535Z,99517.31
2019-01-12T03:42:53.751Z,99519.44
2019-01-12T03:43:24.933Z,99520.70
2019-01-12T03:43:56.103Z,99518.97
2019-01-12T03:44:27.299Z,99521.92
2019-01-12T03:44:59.641Z,99517.17
2019-01-12T03:45:30.738Z,99524.47
2019-01-12T03:46:01.934Z,99520.17
2019-01-12T03:46:33.168Z,99522.36
2019-01-12T03:47:04.348Z,99519.35
2019-01-12T03:47:35.533Z,99525.38
2019-01-12T03:48:06.726Z,99525.78
2019-01-12T03:48:37.907Z,99525.78
2019-01-12T03:49:09.062Z,99530.91
2019-01-12T03:49:40.290Z,99524.91
2019-01-12T03:50:11.510Z,99524.95
2019-01-12T03:50:42.722Z,99524.95
2019-01-12T03:51:15.930Z,99529.23
2019-01-12T03:51:47.105Z,99527.55
2019-01-12T03:52:18.291Z,99526.69
2019-01-12T03:52:49.448Z,99530.52
2019-01-12T03:53:20.628Z,99533.08
2019-01-12T03:53:51.798Z,99529.22
2019-01-12T03:54:22.987Z,99522.80
2019-01-12T03:54:54.184Z,99530.03
2019-01-12T03:55:26.016Z,99524.46
2019-01-12T03:55:57.269Z,99530.42
2019-01-12T03:56:28.436Z,99524.84
2019-01-12T03:56:59.659Z,99532.54
2019-01-12T03:57:30.834Z,99531.62
2019-01-12T03:58:02.008Z,99531.62
2019-01-12T03:58:33.182Z,99535.09
2019-01-12T03:59:04.350Z,99532.52
2019-01-12T03:59:35.512Z,99538.03
2019-01-12T04:00:06.752Z,99538.03
2019-01-12T04:00:37.925Z,99535.91
2019-01-12T04:01:09.116Z,99534.17
2019-01-12T04:01:40.321Z,99536.69
2019-01-12T04:02:11.494Z,99536.69
2019-01-12T04:02:42.701Z,99540.96
2019-01-12T04:03:13.874Z,99539.66
2019-01-12T04:03:45.092Z,99539.66
2019-01-12T04:04:16.326Z,99546.93
2019-01-12T04:04:47.500Z,99549.49
2019-01-12T04:05:18.742Z,99545.19
2019-01-12T04:05:49.918Z,99545.23
2019-01-12T04:06:21.094Z,99549.09
2019-01-12T04:06:52.263Z,99551.64
2019-01-12T04:07:23.447Z,99543.88
2019-01-12T04:07:54.638Z,99556.33
2019-01-12T04:08:25.836Z,99552.94
2019-01-12T04:08:57.052Z,99552.94
2019-01-12T04:09:28.249Z,99557.61
2019-01-12T04:09:59.431Z,99547.75
2019-01-12T04:10:30.646Z,99558.89
2019-01-12T04:11:01.843Z,99557.61
2019-01-12T04:11:33.035Z,99564.87
2019-01-12T04:12:04.197Z,99553.77
2019-01-12T04:12:35.373Z,99561.06
2019-01-12T04:13:06.573Z,99564.91
2019-01-12T04:13:37.748Z,99564.91
2019-01-12T04:14:08.954Z,99561.47
2019-01-12T04:14:40.163Z,99561.01
2019-01-12T04:15:11.346Z,99558.05
2019-01-12T04:15:44.582Z,99563.58
2019-01-12T04:16:15.766Z,99554.14
2019-01-12T04:16:46.940Z,99557.15
2019-01-12T04:17:18.131Z,99562.73
2019-01-12T04:17:49.318Z,99558.45
2019-01-12T04:18:20.487Z,99557.53
2019-01-12T04:18:51.669Z,99557.53
2019-01-12T04:19:22.843Z,99556.30
2019-01-12T04:19:54.036Z,99409.53
2019-01-12T04:20:25.331Z,99559.28
2019-01-12T04:20:56.493Z,99559.28
2019-01-12T04:21:27.662Z,99551.09
2019-01-12T04:21:58.841Z,99551.09
2019-01-12T04:22:30.024Z,99554.13
2019-01-12T04:23:01.212Z,99550.22
2019-01-12T04:23:32.383Z,99551.92
2019-01-12T04:24:03.613Z,99548.47
2019-01-12T04:24:34.769Z,99547.64
2019-01-12T04:25:05.939Z,99546.79
2019-01-12T04:25:37.117Z,99554.04
2019-01-12T04:26:08.318Z,99550.20
2019-01-12T04:26:39.553Z,99544.61
2019-01-12T04:27:10.729Z,99544.61
2019-01-12T04:27:42.019Z,99547.58
2019-01-12T04:28:13.289Z,99553.11
2019-01-12T04:28:44.493Z,99553.11
2019-01-12T04:29:15.691Z,99552.23
2019-01-12T04:29:46.924Z,99548.44
2019-01-12T04:30:18.134Z,99555.26
2019-01-12T04:30:49.332Z,99548.83
2019-01-12T04:31:20.540Z,99551.84
2019-01-12T04:31:51.761Z,99554.39
2019-01-12T04:32:22.971Z,99551.84
2019-01-12T04:32:56.664Z,99547.11
2019-01-12T04:33:27.946Z,99551.02
2019-01-12T04:33:59.228Z,99551.00
2019-01-12T04:34:30.529Z,99551.84
2019-01-12T04:35:01.718Z,99551.39
2019-01-12T04:35:33.005Z,99551.39
2019-01-12T04:36:04.253Z,99543.69
2019-01-12T04:36:35.462Z,99551.84
2019-01-12T04:37:06.679Z,99554.39
2019-01-12T04:37:37.922Z,99556.06
2019-01-12T04:38:09.261Z,99558.63
2019-01-12T04:38:40.441Z,99560.73
2019-01-12T04:39:11.605Z,99558.99
2019-01-12T04:39:42.776Z,99561.62
2019-01-12T04:40:13.947Z,99563.30
2019-01-12T04:40:45.129Z,99560.72
2019-01-12T04:41:16.322Z,99560.72
2019-01-12T04:41:47.500Z,99564.19
2019-01-12T04:42:18.661Z,99561.25
2019-01-12T04:42:49.877Z,99560.81
2019-01-12T04:43:21.051Z,99562.54
2019-01-12T04:43:52.294Z,99559.07
2019-01-12T04:44:23.446Z,99562.47
2019-01-12T04:44:54.625Z,99563.36
2019-01-12T04:45:25.811Z,99570.21
2019-01-12T04:45:56.981Z,99568.95
2019-01-12T04:46:28.223Z,99571.12
2019-01-12T04:46:59.350Z,99566.02
2019-01-12T04:47:30.528Z,99564.30
2019-01-12T04:48:01.698Z,99561.75
2019-01-12T04:48:32.884Z,99569.48
2019-01-12T04:49:04.112Z,99569.89
2019-01-12T04:49:35.289Z,99568.59
2019-01-12T04:50:06.483Z,99566.87
2019-01-12T04:50:37.660Z,99564.31
2019-01-12T04:51:08.840Z,99565.59
2019-01-12T04:51:40.018Z,99570.72
2019-01-12T04:52:11.188Z,99560.42
2019-01-12T04:52:42.382Z,99565.13
2019-01-12T04:53:13.566Z,99569.89
2019-01-12T04:53:44.751Z,99564.77
2019-01-12T04:54:15.958Z,99566.05
2019-01-12T04:54:47.119Z,99566.47
2019-01-12T04:55:18.291Z,99559.55
2019-01-12T04:55:49.463Z,99563.84
2019-01-12T04:56:20.659Z,99565.95
2019-01-12T04:56:51.834Z,99565.56
2019-01-12T04:57:23.096Z,99567.68
2019-01-12T04:57:54.262Z,99567.68
2019-01-12T04:58:25.443Z,99565.50
2019-01-12T04:58:56.649Z,99559.53
2019-01-12T04:59:27.887Z,99565.50
2019-01-12T04:59:59.056Z,99562.92
2019-01-12T05:00:30.246Z,99562.53
2019-01-12T05:01:01.435Z,99565.09
2019-01-12T05:01:32.619Z,99562.09
2019-01-12T05:02:03.795Z,99559.91
2019-01-12T05:02:35.802Z,99554.78
2019-01-12T05:03:07.010Z,99554.78
2019-01-12T05:03:38.181Z,99556.12
2019-01-12T05:04:09.381Z,99556.51
2019-01-12T05:04:40.531Z,99556.51
2019-01-12T05:05:11.763Z,99555.23
2019-01-12T05:05:42.934Z,99559.50
2019-01-12T05:06:14.118Z,99553.11
2019-01-12T05:06:45.276Z,99553.56
2019-01-12T05:07:16.467Z,99552.28
2019-01-12T05:07:47.676Z,99552.28
2019-01-12T05:08:18.837Z,99551.37
2019-01-12T05:08:50.025Z,99548.36
2019-01-12T05:09:21.217Z,99541.50
2019-01-12T05:09:52.416Z,99545.72
2019-01-12T05:10:23.690Z,99541.02
2019-01-12T05:10:54.859Z,99541.02
2019-01-12T05:11:26.048Z,99543.58
2019-01-12T05:11:57.225Z,99546.56
2019-01-12T05:12:28.399Z,99549.12
2019-01-12T05:12:59.570Z,99541.88
2019-01-12T05:13:30.764Z,99548.70
2019-01-12T05:14:01.952Z,99548.28
2019-01-12T05:14:33.144Z,99546.14
2019-01-12T05:15:04.350Z,99541.42
2019-01-12T05:15:35.569Z,99549.12
2019-01-12T05:16:06.737Z,99547.01
2019-01-12T05:16:37.936Z,99551.74
2019-01-12T05:17:09.116Z,99547.89
2019-01-12T05:17:40.336Z,99548.30
2019-01-12T05:18:11.526Z,99549.19
2019-01-12T05:18:42.700Z,99548.36
2019-01-12T05:19:13.870Z,99550.08
2019-01-12T05:19:45.042Z,99556.89
2019-01-12T05:20:16.223Z,99554.38
2019-01-12T05:20:47.458Z,99552.66
2019-01-12T05:21:18.658Z,99551.77
2019-01-12T05:21:49.842Z,99553.96
2019-01-12T05:22:21.014Z,99554.84
2019-01-12T05:22:52.191Z,99557.82
2019-01-12T05:23:23.365Z,99556.12
2019-01-12T05:23:54.534Z,99555.68
2019-01-12T05:24:25.721Z,99558.17
2019-01-12T05:24:56.894Z,99553.50
2019-01-12T05:25:28.095Z,99556.51
2019-01-12T05:25:59.313Z,99554.38
2019-01-12T05:26:30.488Z,99553.95
2019-01-12T05:27:01.676Z,99553.95
2019-01-12T05:27:32.864Z,99556.88
2019-01-12T05:28:04.197Z,99550.92
2019-01-12T05:28:35.370Z,99550.92
2019-01-12T05:29:06.567Z,99556.48
2019-01-12T05:29:37.834Z,99549.56
2019-01-12T05:30:09.004Z,99550.08
2019-01-12T05:30:40.196Z,99550.11
2019-01-12T05:31:11.387Z,99556.03
2019-01-12T05:31:42.548Z,99553.42
2019-01-12T05:32:13.714Z,99551.28
2019-01-12T05:32:44.911Z,99555.11
2019-01-12T05:33:16.152Z,99555.95
2019-01-12T05:33:47.329Z,99551.30
2019-01-12T05:34:18.552Z,99553.01
2019-01-12T05:34:49.742Z,99552.58
2019-01-12T05:35:20.951Z,99554.32
2019-01-12T05:35:52.135Z,99551.30
2019-01-12T05:36:23.323Z,99551.30
2019-01-12T05:36:54.511Z,99553.01
2019-01-12T05:37:25.713Z,99554.30
2019-01-12T05:37:56.901Z,99550.02
2019-01-12T05:38:28.101Z,99555.14
2019-01-12T05:38:59.299Z,99561.92
2019-01-12T05:39:30.474Z,99561.08
2019-01-12T05:40:01.644Z,99561.08
2019-01-12T05:40:32.855Z,99524.02
2019-01-12T05:41:04.023Z,99524.02
2019-01-12T05:41:35.230Z,99564.53
2019-01-12T05:42:06.446Z,99558.16
2019-01-12T05:42:37.648Z,99554.30
2019-01-12T05:43:08.851Z,99561.11
2019-01-12T05:43:40.096Z,99556.86
2019-01-12T05:44:11.276Z,99557.66
2019-01-12T05:44:42.450Z,99557.66
2019-01-12T05:45:13.795Z,99557.66
2019-01-12T05:45:44.967Z,99557.66
2019-01-12T05:46:16.150Z,99557.16
2019-01-12T05:46:47.330Z,99557.13
2019-01-12T05:47:18.496Z,99558.87
2019-01-12T05:47:49.661Z,99558.87
2019-01-12T05:48:20.876Z,99555.88
2019-01-12T05:48:52.044Z,99557.59
2019-01-12T05:49:23.219Z,99550.75
2019-01-12T05:49:54.420Z,99549.54
2019-01-12T05:50:25.642Z,99552.05
2019-01-12T05:50:56.836Z,99555.05
2019-01-12T05:51:28.023Z,99551.20
2019-01-12T05:51:59.206Z,99549.45
2019-01-12T05:52:30.401Z,99550.73
2019-01-12T05:53:01.580Z,99547.70
2019-01-12T05:53:32.799Z,99547.70
2019-01-12T05:54:04.010Z,99561.41
2019-01-12T05:54:35.256Z,99560.98
2019-01-12T05:55:06.539Z,99563.52
2019-01-12T05:55:37.772Z,99560.09
2019-01-12T05:56:09.028Z,99564.36
2019-01-12T05:56:40.296Z,99562.18
2019-01-12T05:57:11.502Z,99571.20
2019-01-12T05:57:42.787Z,99562.62
2019-01-12T05:58:13.980Z,99570.33
2019-01-12T05:58:45.228Z,99566.48
2019-01-12T05:59:16.605Z,99571.20
2019-01-12T05:59:47.931Z,99566.47
2019-01-12T06:00:19.129Z,99565.19
2019-01-12T06:00:50.380Z,99566.02
2019-01-12T06:01:21.629Z,99567.72
2019-01-12T06:01:52.863Z,99560.77
2019-01-12T06:02:24.087Z,99560.77
2019-01-12T06:02:55.309Z,99561.67
2019-01-12T06:03:26.602Z,99565.08
2019-01-12T06:03:57.799Z,99570.18
2019-01-12T06:04:29.076Z,99576.96
2019-01-12T06:05:00.357Z,99570.11
2019-01-12T06:05:31.586Z,99567.56
2019-01-12T06:06:02.890Z,99574.84
2019-01-12T06:06:34.143Z,99569.73